sensor_id;sensor_type;location;lat;lon;timestamp;pressure;altitude;pressure_sealevel;temperature;humidity
77299;BME280;66361;52.034;20.656;2023-04-01T00:01:43;97894.00;;;9.07;100.00
77299;BME280;66361;52.034;20.656;2023-04-01T00:05:45;97886.53;;;9.03;100.00
77299;BME280;66361;52.034;20.656;2023-04-01T00:09:48;97891.41;;;8.98;100.00
77299;BME280;66361;52.034;20.656;2023-04-01T00:13:54;97896.97;;;8.85;100.00
77299;BME280;66361;52.034;20.656;2023-04-01T00:18:04;97898.94;;;8.64;100.00
77299;BME280;66361;52.034;20.656;2023-04-01T00:22:08;97893.78;;;8.43;100.00
77299;BME280;66361;52.034;20.656;2023-04-01T00:26:13;97885.75;;;8.35;100.00
77299;BME280;66361;52.034;20.656;2023-04-01T00:30:21;97888.25;;;8.17;100.00
77299;BME280;66361;52.034;20.656;2023-04-01T00:34:24;97880.03;;;8.01;100.00
77299;BME280;66361;52.034;20.656;2023-04-01T00:38:37;97871.31;;;7.82;100.00
77299;BME280;66361;52.034;20.656;2023-04-01T00:42:41;97879.81;;;7.64;100.00
77299;BME280;66361;52.034;20.656;2023-04-01T00:46:46;97870.91;;;7.46;100.00
77299;BME280;66361;52.034;20.656;2023-04-01T00:50:50;97869.44;;;7.23;100.00
77299;BME280;66361;52.034;20.656;2023-04-01T00:54:59;97866.47;;;7.07;100.00
77299;BME280;66361;52.034;20.656;2023-04-01T00:59:07;97870.50;;;7.11;100.00
77299;BME280;66361;52.034;20.656;2023-04-01T01:03:16;97870.56;;;7.30;100.00
77299;BME280;66361;52.034;20.656;2023-04-01T01:07:24;97872.75;;;7.55;100.00
77299;BME280;66361;52.034;20.656;2023-04-01T01:11:37;97881.25;;;7.78;100.00
77299;BME280;66361;52.034;20.656;2023-04-01T01:15:46;97876.56;;;7.91;100.00
77299;BME280;66361;52.034;20.656;2023-04-01T01:24:43;97873.03;;;8.11;100.00
77299;BME280;66361;52.034;20.656;2023-04-01T01:29:00;97875.53;;;8.22;100.00
77299;BME280;66361;52.034;20.656;2023-04-01T01:33:25;97884.94;;;8.25;100.00
77299;BME280;66361;52.034;20.656;2023-04-01T01:37:35;97882.03;;;8.28;100.00
77299;BME280;66361;52.034;20.656;2023-04-01T01:41:39;97883.28;;;8.34;100.00
77299;BME280;66361;52.034;20.656;2023-04-01T01:45:47;97877.47;;;8.40;100.00
77299;BME280;66361;52.034;20.656;2023-04-01T01:49:54;97875.66;;;8.40;100.00
77299;BME280;66361;52.034;20.656;2023-04-01T01:53:59;97868.75;;;8.39;100.00
77299;BME280;66361;52.034;20.656;2023-04-01T01:58:05;97869.19;;;8.35;100.00
77299;BME280;66361;52.034;20.656;2023-04-01T02:02:10;97849.94;;;8.24;100.00
77299;BME280;66361;52.034;20.656;2023-04-01T02:06:17;97854.09;;;8.27;100.00
77299;BME280;66361;52.034;20.656;2023-04-01T02:10:25;97851.47;;;8.27;100.00
77299;BME280;66361;52.034;20.656;2023-04-01T02:14:29;97845.22;;;8.28;100.00
77299;BME280;66361;52.034;20.656;2023-04-01T02:18:39;97847.84;;;8.28;100.00
77299;BME280;66361;52.034;20.656;2023-04-01T02:22:48;97853.97;;;8.19;100.00
77299;BME280;66361;52.034;20.656;2023-04-01T02:26:53;97855.47;;;8.12;100.00
77299;BME280;66361;52.034;20.656;2023-04-01T02:30:57;97862.09;;;8.06;100.00
77299;BME280;66361;52.034;20.656;2023-04-01T02:35:05;97858.34;;;7.99;100.00
77299;BME280;66361;52.034;20.656;2023-04-01T02:39:13;97859.03;;;7.92;100.00
77299;BME280;66361;52.034;20.656;2023-04-01T02:43:19;97853.91;;;7.80;100.00
77299;BME280;66361;52.034;20.656;2023-04-01T02:47:22;97858.88;;;7.84;100.00
77299;BME280;66361;52.034;20.656;2023-04-01T02:51:26;97861.22;;;7.87;100.00
77299;BME280;66361;52.034;20.656;2023-04-01T02:55:33;97861.78;;;7.90;100.00
77299;BME280;66361;52.034;20.656;2023-04-01T02:59:38;97858.06;;;7.93;100.00
77299;BME280;66361;52.034;20.656;2023-04-01T03:03:40;97858.75;;;7.95;100.00
77299;BME280;66361;52.034;20.656;2023-04-01T03:07:43;97868.44;;;7.94;100.00
77299;BME280;66361;52.034;20.656;2023-04-01T03:11:46;97872.56;;;7.87;100.00
77299;BME280;66361;52.034;20.656;2023-04-01T03:15:51;97880.84;;;7.82;100.00
77299;BME280;66361;52.034;20.656;2023-04-01T03:19:54;97881.41;;;7.86;100.00
77299;BME280;66361;52.034;20.656;2023-04-01T03:23:57;97883.09;;;7.97;100.00
77299;BME280;66361;52.034;20.656;2023-04-01T03:28:01;97886.97;;;8.02;100.00
77299;BME280;66361;52.034;20.656;2023-04-01T03:32:05;97891.16;;;8.05;100.00
77299;BME280;66361;52.034;20.656;2023-04-01T03:36:11;97886.56;;;8.07;100.00
77299;BME280;66361;52.034;20.656;2023-04-01T03:40:14;97892.25;;;8.12;100.00
77299;BME280;66361;52.034;20.656;2023-04-01T03:44:17;97895.00;;;8.10;100.00
77299;BME280;66361;52.034;20.656;2023-04-01T03:48:24;97895.00;;;8.10;100.00
77299;BME280;66361;52.034;20.656;2023-04-01T03:52:27;97896.53;;;8.13;100.00
77299;BME280;66361;52.034;20.656;2023-04-01T03:56:32;97905.94;;;8.15;100.00
77299;BME280;66361;52.034;20.656;2023-04-01T04:00:37;97912.72;;;8.18;100.00
77299;BME280;66361;52.034;20.656;2023-04-01T04:04:42;97911.59;;;8.20;100.00
77299;BME280;66361;52.034;20.656;2023-04-01T04:08:45;97917.28;;;8.25;100.00
77299;BME280;66361;52.034;20.656;2023-04-01T04:12:49;97925.84;;;8.27;100.00
77299;BME280;66361;52.034;20.656;2023-04-01T04:16:52;97927.53;;;8.28;100.00
77299;BME280;66361;52.034;20.656;2023-04-01T04:20:59;97923.38;;;8.26;100.00
77299;BME280;66361;52.034;20.656;2023-04-01T04:25:02;97931.28;;;8.26;100.00
77299;BME280;66361;52.034;20.656;2023-04-01T04:29:05;97939.72;;;8.29;100.00
77299;BME280;66361;52.034;20.656;2023-04-01T04:33:08;97934.06;;;8.34;100.00
77299;BME280;66361;52.034;20.656;2023-04-01T04:37:15;97933.63;;;8.39;100.00
77299;BME280;66361;52.034;20.656;2023-04-01T04:41:21;97928.78;;;8.44;100.00
77299;BME280;66361;52.034;20.656;2023-04-01T04:45:24;97932.69;;;8.49;100.00
77299;BME280;66361;52.034;20.656;2023-04-01T04:49:27;97934.06;;;8.53;100.00
77299;BME280;66361;52.034;20.656;2023-04-01T04:53:31;97935.44;;;8.57;100.00
77299;BME280;66361;52.034;20.656;2023-04-01T04:57:36;97939.19;;;8.64;100.00
77299;BME280;66361;52.034;20.656;2023-04-01T05:01:39;97941.53;;;8.77;100.00
77299;BME280;66361;52.034;20.656;2023-04-01T05:05:49;97940.84;;;8.94;100.00
77299;BME280;66361;52.034;20.656;2023-04-01T05:09:53;97929.19;;;9.16;100.00
77299;BME280;66361;52.034;20.656;2023-04-01T05:14:01;97927.38;;;9.36;100.00
77299;BME280;66361;52.034;20.656;2023-04-01T05:18:04;97930.97;;;9.71;100.00
77299;BME280;66361;52.034;20.656;2023-04-01T05:22:09;97934.34;;;10.63;100.00
77299;BME280;66361;52.034;20.656;2023-04-01T05:26:14;97930.31;;;11.64;93.97
77299;BME280;66361;52.034;20.656;2023-04-01T05:30:17;97945.38;;;12.63;90.35
77299;BME280;66361;52.034;20.656;2023-04-01T05:34:20;97937.56;;;12.38;87.61
77299;BME280;66361;52.034;20.656;2023-04-01T05:38:24;97933.69;;;11.74;89.27
77299;BME280;66361;52.034;20.656;2023-04-01T05:42:28;97932.22;;;11.54;90.32
77299;BME280;66361;52.034;20.656;2023-04-01T05:46:31;97927.78;;;11.54;88.86
77299;BME280;66361;52.034;20.656;2023-04-01T05:50:35;97932.88;;;11.48;88.29
77299;BME280;66361;52.034;20.656;2023-04-01T05:54:38;97938.59;;;11.43;89.76
77299;BME280;66361;52.034;20.656;2023-04-01T05:58:42;97942.13;;;11.52;91.05
77299;BME280;66361;52.034;20.656;2023-04-01T06:02:45;97938.66;;;11.26;90.09
77299;BME280;66361;52.034;20.656;2023-04-01T06:06:49;97945.38;;;11.20;92.06
77299;BME280;66361;52.034;20.656;2023-04-01T06:11:04;97947.66;;;11.15;93.58
77299;BME280;66361;52.034;20.656;2023-04-01T06:15:20;97949.00;;;11.01;93.75
77299;BME280;66361;52.034;20.656;2023-04-01T06:19:39;97945.47;;;10.93;94.86
77299;BME280;66361;52.034;20.656;2023-04-01T06:23:54;97952.47;;;10.84;93.34
77299;BME280;66361;52.034;20.656;2023-04-01T06:28:35;97962.50;;;10.98;93.54
77299;BME280;66361;52.034;20.656;2023-04-01T06:33:02;97966.03;;;11.07;93.87
77299;BME280;66361;52.034;20.656;2023-04-01T06:37:20;97962.44;;;11.08;94.24
77299;BME280;66361;52.034;20.656;2023-04-01T06:42:02;97961.44;;;10.91;92.24
77299;BME280;66361;52.034;20.656;2023-04-01T06:46:13;97959.50;;;10.93;93.97
77299;BME280;66361;52.034;20.656;2023-04-01T06:50:28;97960.47;;;11.10;95.53
77299;BME280;66361;52.034;20.656;2023-04-01T06:54:34;97960.97;;;11.31;93.86
77299;BME280;66361;52.034;20.656;2023-04-01T06:58:45;97961.94;;;11.48;90.76
77299;BME280;66361;52.034;20.656;2023-04-01T07:02:54;97971.00;;;11.45;89.71
77299;BME280;66361;52.034;20.656;2023-04-01T07:07:05;97958.38;;;11.39;91.14
77299;BME280;66361;52.034;20.656;2023-04-01T07:11:21;97960.09;;;11.23;90.89
77299;BME280;66361;52.034;20.656;2023-04-01T07:15:31;97964.91;;;11.09;90.23
77299;BME280;66361;52.034;20.656;2023-04-01T07:19:45;97962.06;;;11.03;90.30
77299;BME280;66361;52.034;20.656;2023-04-01T07:23:52;97962.44;;;11.08;91.50
77299;BME280;66361;52.034;20.656;2023-04-01T07:28:01;97961.00;;;10.96;91.00
77299;BME280;66361;52.034;20.656;2023-04-01T07:32:23;97971.19;;;11.26;89.82
77299;BME280;66361;52.034;20.656;2023-04-01T07:36:37;97968.13;;;11.90;87.26
77299;BME280;66361;52.034;20.656;2023-04-01T07:40:48;97967.47;;;11.96;87.43
77299;BME280;66361;52.034;20.656;2023-04-01T07:44:59;97964.13;;;11.86;86.46
77299;BME280;66361;52.034;20.656;2023-04-01T07:49:07;97972.91;;;11.87;86.64
77299;BME280;66361;52.034;20.656;2023-04-01T07:53:18;97971.56;;;11.83;84.86
77299;BME280;66361;52.034;20.656;2023-04-01T07:57:32;97967.84;;;11.68;86.44
77299;BME280;66361;52.034;20.656;2023-04-01T08:01:42;97967.59;;;11.61;86.16
77299;BME280;66361;52.034;20.656;2023-04-01T08:05:53;97977.97;;;11.54;86.38
77299;BME280;66361;52.034;20.656;2023-04-01T08:10:02;97990.47;;;11.44;87.56
77299;BME280;66361;52.034;20.656;2023-04-01T08:14:14;97982.56;;;11.27;87.37
77299;BME280;66361;52.034;20.656;2023-04-01T08:18:29;97986.72;;;11.11;89.18
77299;BME280;66361;52.034;20.656;2023-04-01T08:22:39;97991.97;;;10.94;88.61
77299;BME280;66361;52.034;20.656;2023-04-01T08:26:45;97995.75;;;10.91;89.59
77299;BME280;66361;52.034;20.656;2023-04-01T08:30:55;98000.16;;;11.00;89.64
77299;BME280;66361;52.034;20.656;2023-04-01T08:35:14;97993.06;;;11.01;89.52
77299;BME280;66361;52.034;20.656;2023-04-01T08:39:27;97995.38;;;11.04;88.35
77299;BME280;66361;52.034;20.656;2023-04-01T08:43:47;97999.75;;;10.95;88.19
77299;BME280;66361;52.034;20.656;2023-04-01T08:48:12;98007.59;;;10.87;88.98
77299;BME280;66361;52.034;20.656;2023-04-01T08:52:30;98003.00;;;11.07;89.69
77299;BME280;66361;52.034;20.656;2023-04-01T08:56:40;98006.78;;;11.22;90.01
77299;BME280;66361;52.034;20.656;2023-04-01T09:00:49;97998.41;;;11.27;89.46
77299;BME280;66361;52.034;20.656;2023-04-01T09:09:58;98003.28;;;11.39;90.82
77299;BME280;66361;52.034;20.656;2023-04-01T09:14:29;98009.00;;;11.78;87.77
77299;BME280;66361;52.034;20.656;2023-04-01T09:18:59;98005.47;;;11.95;87.38
77299;BME280;66361;52.034;20.656;2023-04-01T09:23:21;98007.56;;;12.09;86.66
77299;BME280;66361;52.034;20.656;2023-04-01T09:27:34;98014.09;;;11.97;85.74
77299;BME280;66361;52.034;20.656;2023-04-01T09:32:01;98009.72;;;11.88;87.27
77299;BME280;66361;52.034;20.656;2023-04-01T09:36:15;98009.94;;;11.69;87.90
77299;BME280;66361;52.034;20.656;2023-04-01T09:40:31;98019.50;;;11.44;89.53
77299;BME280;66361;52.034;20.656;2023-04-01T09:44:49;98020.13;;;11.38;90.07
77299;BME280;66361;52.034;20.656;2023-04-01T09:49:24;98016.94;;;11.52;92.63
77299;BME280;66361;52.034;20.656;2023-04-01T09:53:48;98015.78;;;11.81;90.14
77299;BME280;66361;52.034;20.656;2023-04-01T09:58:25;98014.44;;;12.44;87.31
77299;BME280;66361;52.034;20.656;2023-04-01T10:07:54;98016.13;;;13.76;77.28
77299;BME280;66361;52.034;20.656;2023-04-01T10:12:41;98020.44;;;13.53;77.59
77299;BME280;66361;52.034;20.656;2023-04-01T10:17:24;98027.34;;;12.89;80.96
77299;BME280;66361;52.034;20.656;2023-04-01T10:22:13;98028.34;;;12.04;84.90
77299;BME280;66361;52.034;20.656;2023-04-01T10:26:33;98041.34;;;11.29;87.36
77299;BME280;66361;52.034;20.656;2023-04-01T10:31:14;98042.28;;;10.92;91.97
77299;BME280;66361;52.034;20.656;2023-04-01T10:35:45;98036.69;;;10.78;93.48
77299;BME280;66361;52.034;20.656;2023-04-01T10:40:31;98035.47;;;10.90;95.96
77299;BME280;66361;52.034;20.656;2023-04-01T10:54:03;98032.44;;;11.12;94.74
77299;BME280;66361;52.034;20.656;2023-04-01T10:58:35;98030.97;;;11.53;95.27
77299;BME280;66361;52.034;20.656;2023-04-01T11:07:48;98035.19;;;12.57;91.87
77299;BME280;66361;52.034;20.656;2023-04-01T11:12:36;98047.22;;;12.51;85.78
77299;BME280;66361;52.034;20.656;2023-04-01T11:17:05;98048.00;;;12.36;87.59
77299;BME280;66361;52.034;20.656;2023-04-01T11:26:02;98055.59;;;11.79;92.25
77299;BME280;66361;52.034;20.656;2023-04-01T11:30:18;98057.38;;;11.96;91.34
77299;BME280;66361;52.034;20.656;2023-04-01T11:34:47;98042.97;;;11.91;90.21
77299;BME280;66361;52.034;20.656;2023-04-01T11:39:18;98050.59;;;11.76;90.52
77299;BME280;66361;52.034;20.656;2023-04-01T11:43:32;98052.38;;;11.68;89.82
77299;BME280;66361;52.034;20.656;2023-04-01T11:48:07;98055.03;;;11.68;90.58
77299;BME280;66361;52.034;20.656;2023-04-01T11:52:24;98061.50;;;11.73;91.50
77299;BME280;66361;52.034;20.656;2023-04-01T11:56:41;98053.53;;;11.91;90.48
77299;BME280;66361;52.034;20.656;2023-04-01T12:00:57;98047.88;;;12.11;89.55
77299;BME280;66361;52.034;20.656;2023-04-01T12:05:24;98054.41;;;12.33;87.78
77299;BME280;66361;52.034;20.656;2023-04-01T12:09:42;98064.38;;;12.73;86.46
77299;BME280;66361;52.034;20.656;2023-04-01T12:13:56;98063.28;;;13.00;83.61
77299;BME280;66361;52.034;20.656;2023-04-01T12:18:12;98059.72;;;13.33;83.44
77299;BME280;66361;52.034;20.656;2023-04-01T12:22:38;98071.97;;;13.50;82.61
77299;BME280;66361;52.034;20.656;2023-04-01T12:26:55;98068.00;;;13.71;80.44
77299;BME280;66361;52.034;20.656;2023-04-01T12:31:11;98065.31;;;13.87;80.61
77299;BME280;66361;52.034;20.656;2023-04-01T12:35:22;98073.59;;;14.00;79.81
77299;BME280;66361;52.034;20.656;2023-04-01T12:39:52;98065.16;;;14.04;74.17
77299;BME280;66361;52.034;20.656;2023-04-01T12:53:36;98065.09;;;14.37;74.78
77299;BME280;66361;52.034;20.656;2023-04-01T12:58:05;98065.13;;;14.68;72.92
77299;BME280;66361;52.034;20.656;2023-04-01T13:02:20;98060.22;;;14.57;67.18
77299;BME280;66361;52.034;20.656;2023-04-01T13:06:44;98063.16;;;14.15;72.57
77299;BME280;66361;52.034;20.656;2023-04-01T13:11:08;98067.13;;;14.27;73.37
77299;BME280;66361;52.034;20.656;2023-04-01T13:15:23;98075.75;;;14.68;70.69
77299;BME280;66361;52.034;20.656;2023-04-01T13:19:34;98072.22;;;14.83;69.81
77299;BME280;66361;52.034;20.656;2023-04-01T13:23:55;98072.41;;;14.74;64.51
77299;BME280;66361;52.034;20.656;2023-04-01T13:28:08;98074.66;;;14.46;69.58
77299;BME280;66361;52.034;20.656;2023-04-01T13:32:22;98089.69;;;13.66;71.19
77299;BME280;66361;52.034;20.656;2023-04-01T13:36:53;98088.13;;;13.15;77.10
77299;BME280;66361;52.034;20.656;2023-04-01T13:41:06;98105.06;;;12.72;78.56
77299;BME280;66361;52.034;20.656;2023-04-01T13:45:16;98104.44;;;12.19;83.11
77299;BME280;66361;52.034;20.656;2023-04-01T13:54:12;98112.94;;;11.43;90.39
77299;BME280;66361;52.034;20.656;2023-04-01T13:58:30;98119.13;;;11.34;91.54
77299;BME280;66361;52.034;20.656;2023-04-01T14:02:47;98122.31;;;11.38;90.91
77299;BME280;66361;52.034;20.656;2023-04-01T14:07:04;98125.06;;;11.54;90.82
77299;BME280;66361;52.034;20.656;2023-04-01T14:11:17;98119.94;;;11.70;89.77
77299;BME280;66361;52.034;20.656;2023-04-01T14:15:41;98128.16;;;11.85;87.91
77299;BME280;66361;52.034;20.656;2023-04-01T14:20:13;98121.44;;;11.90;89.41
77299;BME280;66361;52.034;20.656;2023-04-01T14:24:36;98132.88;;;11.99;87.64
77299;BME280;66361;52.034;20.656;2023-04-01T14:28:53;98139.41;;;11.87;88.15
77299;BME280;66361;52.034;20.656;2023-04-01T14:33:06;98142.34;;;11.84;87.48
77299;BME280;66361;52.034;20.656;2023-04-01T14:37:22;98155.56;;;11.66;86.26
77299;BME280;66361;52.034;20.656;2023-04-01T14:41:42;98163.22;;;11.51;87.03
77299;BME280;66361;52.034;20.656;2023-04-01T14:46:32;98165.44;;;11.29;89.35
77299;BME280;66361;52.034;20.656;2023-04-01T14:50:45;98182.22;;;11.10;91.04
77299;BME280;66361;52.034;20.656;2023-04-01T14:54:50;98181.81;;;10.78;92.77
77299;BME280;66361;52.034;20.656;2023-04-01T14:58:58;98194.66;;;10.63;93.80
77299;BME280;66361;52.034;20.656;2023-04-01T15:03:08;98189.00;;;10.48;95.40
77299;BME280;66361;52.034;20.656;2023-04-01T15:12:01;98204.56;;;10.42;97.61
77299;BME280;66361;52.034;20.656;2023-04-01T15:16:20;98207.31;;;10.50;96.94
77299;BME280;66361;52.034;20.656;2023-04-01T15:20:45;98210.50;;;10.53;95.56
77299;BME280;66361;52.034;20.656;2023-04-01T15:25:06;98217.03;;;10.49;93.90
77299;BME280;66361;52.034;20.656;2023-04-01T15:33:56;98234.97;;;10.27;94.42
77299;BME280;66361;52.034;20.656;2023-04-01T15:38:06;98239.31;;;10.18;94.90
77299;BME280;66361;52.034;20.656;2023-04-01T15:42:48;98243.19;;;10.14;95.06
77299;BME280;66361;52.034;20.656;2023-04-01T15:46:57;98257.19;;;10.05;96.22
77299;BME280;66361;52.034;20.656;2023-04-01T15:51:17;98260.38;;;9.89;98.50
77299;BME280;66361;52.034;20.656;2023-04-01T15:55:26;98263.69;;;9.82;100.00
77299;BME280;66361;52.034;20.656;2023-04-01T15:59:55;98271.31;;;9.75;100.00
77299;BME280;66361;52.034;20.656;2023-04-01T16:04:12;98277.72;;;9.72;99.93
77299;BME280;66361;52.034;20.656;2023-04-01T16:08:39;98283.25;;;9.69;100.00
77299;BME280;66361;52.034;20.656;2023-04-01T16:12:57;98294.03;;;9.66;98.42
77299;BME280;66361;52.034;20.656;2023-04-01T16:17:19;98298.19;;;9.59;99.49
77299;BME280;66361;52.034;20.656;2023-04-01T16:21:36;98301.22;;;9.55;97.79
77299;BME280;66361;52.034;20.656;2023-04-01T16:25:45;98304.97;;;9.52;98.35
77299;BME280;66361;52.034;20.656;2023-04-01T16:29:56;98311.19;;;9.51;98.00
77299;BME280;66361;52.034;20.656;2023-04-01T16:34:08;98320.09;;;9.50;96.90
77299;BME280;66361;52.034;20.656;2023-04-01T16:38:18;98327.41;;;9.47;97.12
77299;BME280;66361;52.034;20.656;2023-04-01T16:42:35;98337.50;;;9.42;97.34
77299;BME280;66361;52.034;20.656;2023-04-01T16:46:44;98341.25;;;9.39;97.10
77299;BME280;66361;52.034;20.656;2023-04-01T16:50:53;98351.22;;;9.36;98.69
77299;BME280;66361;52.034;20.656;2023-04-01T16:55:03;98351.44;;;9.33;98.11
77299;BME280;66361;52.034;20.656;2023-04-01T16:59:20;98361.28;;;9.31;97.99
77299;BME280;66361;52.034;20.656;2023-04-01T17:03:28;98364.28;;;9.26;98.25
77299;BME280;66361;52.034;20.656;2023-04-01T17:07:45;98375.91;;;9.23;98.22
77299;BME280;66361;52.034;20.656;2023-04-01T17:11:57;98381.03;;;9.25;98.28
77299;BME280;66361;52.034;20.656;2023-04-01T17:16:16;98379.38;;;9.24;98.67
77299;BME280;66361;52.034;20.656;2023-04-01T17:20:35;98395.19;;;9.24;97.55
77299;BME280;66361;52.034;20.656;2023-04-01T17:24:54;98395.44;;;9.21;97.73
77299;BME280;66361;52.034;20.656;2023-04-01T17:29:11;98396.66;;;9.17;97.99
77299;BME280;66361;52.034;20.656;2023-04-01T17:33:36;98414.00;;;9.19;97.12
77299;BME280;66361;52.034;20.656;2023-04-01T17:37:52;98419.53;;;9.16;96.98
77299;BME280;66361;52.034;20.656;2023-04-01T17:42:00;98430.31;;;9.13;96.03
77299;BME280;66361;52.034;20.656;2023-04-01T17:46:27;98441.34;;;9.07;96.05
77299;BME280;66361;52.034;20.656;2023-04-01T17:50:50;98447.97;;;9.02;95.90
77299;BME280;66361;52.034;20.656;2023-04-01T17:55:04;98450.81;;;8.99;96.27
77299;BME280;66361;52.034;20.656;2023-04-01T17:59:16;98460.66;;;8.97;96.53
77299;BME280;66361;52.034;20.656;2023-04-01T18:03:41;98475.75;;;8.95;96.84
77299;BME280;66361;52.034;20.656;2023-04-01T18:08:04;98490.91;;;8.91;97.12
77299;BME280;66361;52.034;20.656;2023-04-01T18:12:17;98481.75;;;8.86;95.46
77299;BME280;66361;52.034;20.656;2023-04-01T18:16:47;98492.91;;;8.78;95.44
77299;BME280;66361;52.034;20.656;2023-04-01T18:20:59;98495.31;;;8.70;94.06
77299;BME280;66361;52.034;20.656;2023-04-01T18:25:15;98499.06;;;8.56;95.67
77299;BME280;66361;52.034;20.656;2023-04-01T18:29:27;98510.06;;;8.50;95.14
77299;BME280;66361;52.034;20.656;2023-04-01T18:33:41;98516.66;;;8.45;96.10
77299;BME280;66361;52.034;20.656;2023-04-01T18:37:51;98523.72;;;8.44;96.27
77299;BME280;66361;52.034;20.656;2023-04-01T18:42:03;98528.28;;;8.42;96.13
77299;BME280;66361;52.034;20.656;2023-04-01T18:46:17;98529.59;;;8.37;96.26
77299;BME280;66361;52.034;20.656;2023-04-01T18:50:27;98540.22;;;8.35;95.93
77299;BME280;66361;52.034;20.656;2023-04-01T18:54:41;98540.47;;;8.32;95.84
77299;BME280;66361;52.034;20.656;2023-04-01T18:58:50;98550.28;;;8.30;95.38
77299;BME280;66361;52.034;20.656;2023-04-01T19:03:02;98556.00;;;8.24;95.93
77299;BME280;66361;52.034;20.656;2023-04-01T19:07:39;98564.13;;;8.21;96.06
77299;BME280;66361;52.034;20.656;2023-04-01T19:11:50;98570.31;;;8.20;96.75
77299;BME280;66361;52.034;20.656;2023-04-01T19:16:10;98579.19;;;8.19;96.97
77299;BME280;66361;52.034;20.656;2023-04-01T19:20:19;98590.41;;;8.21;97.59
77299;BME280;66361;52.034;20.656;2023-04-01T19:24:40;98597.59;;;8.19;98.06
77299;BME280;66361;52.034;20.656;2023-04-01T19:28:52;98603.91;;;8.16;98.56
77299;BME280;66361;52.034;20.656;2023-04-01T19:33:06;98605.09;;;8.12;98.54
77299;BME280;66361;52.034;20.656;2023-04-01T19:37:25;98615.00;;;8.09;98.63
77299;BME280;66361;52.034;20.656;2023-04-01T19:41:39;98623.13;;;8.06;98.19
77299;BME280;66361;52.034;20.656;2023-04-01T19:45:49;98625.16;;;8.02;97.41
77299;BME280;66361;52.034;20.656;2023-04-01T19:50:03;98631.47;;;8.00;97.21
77299;BME280;66361;52.034;20.656;2023-04-01T19:54:19;98626.34;;;7.98;97.62
77299;BME280;66361;52.034;20.656;2023-04-01T19:58:30;98635.28;;;7.96;97.10
77299;BME280;66361;52.034;20.656;2023-04-01T20:02:43;;;;7.92;
77299;BME280;66361;52.034;20.656;2023-04-01T20:06:57;98639.09;;;7.92;97.36
77299;BME280;66361;52.034;20.656;2023-04-01T20:11:11;98644.59;;;7.89;98.18
77299;BME280;66361;52.034;20.656;2023-04-01T20:15:22;98652.72;;;7.86;99.23
77299;BME280;66361;52.034;20.656;2023-04-01T20:19:35;98657.38;;;7.82;99.62
77299;BME280;66361;52.034;20.656;2023-04-01T20:23:47;98648.75;;;7.80;100.00
77299;BME280;66361;52.034;20.656;2023-04-01T20:27:56;98654.13;;;7.78;100.00
77299;BME280;66361;52.034;20.656;2023-04-01T20:32:13;98651.00;;;7.73;99.46
77299;BME280;66361;52.034;20.656;2023-04-01T20:36:25;98661.63;;;7.72;98.99
77299;BME280;66361;52.034;20.656;2023-04-01T20:40:35;98665.22;;;7.71;99.43
77299;BME280;66361;52.034;20.656;2023-04-01T20:44:43;98670.31;;;7.72;100.00
77299;BME280;66361;52.034;20.656;2023-04-01T20:53:20;98679.28;;;7.70;99.82
77299;BME280;66361;52.034;20.656;2023-04-01T20:57:27;98686.41;;;7.68;100.00
77299;BME280;66361;52.034;20.656;2023-04-01T21:01:40;98698.84;;;7.66;100.00
77299;BME280;66361;52.034;20.656;2023-04-01T21:06:09;98695.97;;;7.69;99.48
77299;BME280;66361;52.034;20.656;2023-04-01T21:10:34;98703.25;;;7.65;100.00
77299;BME280;66361;52.034;20.656;2023-04-01T21:14:54;98716.72;;;7.61;100.00
77299;BME280;66361;52.034;20.656;2023-04-01T21:19:07;98713.47;;;7.57;99.77
77299;BME280;66361;52.034;20.656;2023-04-01T21:23:21;98720.63;;;7.55;100.00
77299;BME280;66361;52.034;20.656;2023-04-01T21:27:37;98720.03;;;7.52;100.00
77299;BME280;66361;52.034;20.656;2023-04-01T21:31:59;98728.53;;;7.55;100.00
77299;BME280;66361;52.034;20.656;2023-04-01T21:36:18;98733.88;;;7.54;100.00
77299;BME280;66361;52.034;20.656;2023-04-01T21:40:39;98733.25;;;7.50;99.26
77299;BME280;66361;52.034;20.656;2023-04-01T21:45:07;98737.56;;;7.51;99.20
77299;BME280;66361;52.034;20.656;2023-04-01T21:54:36;98747.25;;;7.38;98.54
77299;BME280;66361;52.034;20.656;2023-04-01T22:03:52;98748.88;;;7.28;98.22
77299;BME280;66361;52.034;20.656;2023-04-01T22:08:20;98756.13;;;7.24;97.73
77299;BME280;66361;52.034;20.656;2023-04-01T22:12:34;98753.81;;;7.20;97.49
77299;BME280;66361;52.034;20.656;2023-04-01T22:16:45;98765.25;;;7.19;98.07
77299;BME280;66361;52.034;20.656;2023-04-01T22:20:56;98773.25;;;7.17;96.74
77299;BME280;66361;52.034;20.656;2023-04-01T22:25:10;98769.19;;;7.13;95.73
77299;BME280;66361;52.034;20.656;2023-04-01T22:29:23;98771.91;;;7.12;95.34
77299;BME280;66361;52.034;20.656;2023-04-01T22:33:33;98779.28;;;7.07;94.29
77299;BME280;66361;52.034;20.656;2023-04-01T22:37:45;98783.78;;;7.05;93.99
77299;BME280;66361;52.034;20.656;2023-04-01T22:42:03;98785.91;;;7.00;93.93
77299;BME280;66361;52.034;20.656;2023-04-01T22:46:29;98795.41;;;7.01;93.79
77299;BME280;66361;52.034;20.656;2023-04-01T22:50:39;98797.09;;;7.02;92.95
77299;BME280;66361;52.034;20.656;2023-04-01T22:54:45;98799.00;;;7.00;92.93
77299;BME280;66361;52.034;20.656;2023-04-01T22:58:55;98801.81;;;6.97;93.00
77299;BME280;66361;52.034;20.656;2023-04-01T23:03:08;98805.59;;;6.93;93.83
77299;BME280;66361;52.034;20.656;2023-04-01T23:07:31;98811.81;;;6.92;94.13
77299;BME280;66361;52.034;20.656;2023-04-01T23:11:44;98811.91;;;6.90;94.61
77299;BME280;66361;52.034;20.656;2023-04-01T23:15:51;98818.22;;;6.88;94.97
77299;BME280;66361;52.034;20.656;2023-04-01T23:20:05;98825.25;;;6.87;94.58
77299;BME280;66361;52.034;20.656;2023-04-01T23:24:17;98825.63;;;6.81;93.11